sensor_id;sensor_type;location;lat;lon;timestamp;temperature;humidity
44069;DHT22;29738;51.234;5.484;2022-12-18T00:01:57;-4.50;99.90
44069;DHT22;29738;51.234;5.484;2022-12-18T00:04:25;-4.50;99.90
44069;DHT22;29738;51.234;5.484;2022-12-18T00:06:51;-4.70;99.90
44069;DHT22;29738;51.234;5.484;2022-12-18T00:09:18;-5.10;99.90
44069;DHT22;29738;51.234;5.484;2022-12-18T00:11:43;-5.10;99.90
44069;DHT22;29738;51.234;5.484;2022-12-18T00:14:11;-5.20;99.90
44069;DHT22;29738;51.234;5.484;2022-12-18T00:16:37;-5.10;99.90
44069;DHT22;29738;51.234;5.484;2022-12-18T00:19:03;-5.20;99.90
44069;DHT22;29738;51.234;5.484;2022-12-18T00:21:31;-5.30;99.90
44069;DHT22;29738;51.234;5.484;2022-12-18T00:23:58;-5.20;99.90
44069;DHT22;29738;51.234;5.484;2022-12-18T00:26:26;-5.30;99.90
44069;DHT22;29738;51.234;5.484;2022-12-18T00:28:53;-5.50;99.90
44069;DHT22;29738;51.234;5.484;2022-12-18T00:31:22;-5.70;99.90
44069;DHT22;29738;51.234;5.484;2022-12-18T00:33:48;-5.60;99.90
44069;DHT22;29738;51.234;5.484;2022-12-18T00:36:20;-5.40;99.90
44069;DHT22;29738;51.234;5.484;2022-12-18T00:38:46;-5.30;99.90
44069;DHT22;29738;51.234;5.484;2022-12-18T00:41:14;-5.10;99.90
44069;DHT22;29738;51.234;5.484;2022-12-18T00:44:00;-5.30;99.90
44069;DHT22;29738;51.234;5.484;2022-12-18T00:46:26;-5.80;99.90
44069;DHT22;29738;51.234;5.484;2022-12-18T00:48:51;-6.20;99.90
44069;DHT22;29738;51.234;5.484;2022-12-18T00:51:17;-6.10;99.90
44069;DHT22;29738;51.234;5.484;2022-12-18T00:53:44;-6.10;99.90
44069;DHT22;29738;51.234;5.484;2022-12-18T00:56:10;-6.10;99.90
44069;DHT22;29738;51.234;5.484;2022-12-18T00:58:35;-5.90;99.90
44069;DHT22;29738;51.234;5.484;2022-12-18T01:01:01;-6.10;99.90
44069;DHT22;29738;51.234;5.484;2022-12-18T01:03:28;-6.10;99.90
44069;DHT22;29738;51.234;5.484;2022-12-18T01:05:54;-6.10;99.90
44069;DHT22;29738;51.234;5.484;2022-12-18T01:08:20;-6.20;99.90
44069;DHT22;29738;51.234;5.484;2022-12-18T01:10:45;-6.00;99.90
44069;DHT22;29738;51.234;5.484;2022-12-18T01:13:11;-6.30;99.90
44069;DHT22;29738;51.234;5.484;2022-12-18T01:15:37;-6.20;99.90
44069;DHT22;29738;51.234;5.484;2022-12-18T01:18:03;-6.40;99.90
44069;DHT22;29738;51.234;5.484;2022-12-18T01:20:28;-6.40;99.90
44069;DHT22;29738;51.234;5.484;2022-12-18T01:22:54;-6.40;99.90
44069;DHT22;29738;51.234;5.484;2022-12-18T01:25:20;-6.40;99.90
44069;DHT22;29738;51.234;5.484;2022-12-18T01:27:45;-6.40;99.90
44069;DHT22;29738;51.234;5.484;2022-12-18T01:30:12;-6.10;99.90
44069;DHT22;29738;51.234;5.484;2022-12-18T01:32:37;-6.30;99.90
44069;DHT22;29738;51.234;5.484;2022-12-18T01:35:03;-5.90;99.90
44069;DHT22;29738;51.234;5.484;2022-12-18T01:37:29;-5.80;99.90
44069;DHT22;29738;51.234;5.484;2022-12-18T01:39:55;-5.50;99.90
44069;DHT22;29738;51.234;5.484;2022-12-18T01:42:21;-5.40;99.90
44069;DHT22;29738;51.234;5.484;2022-12-18T01:47:47;-5.50;99.90
44069;DHT22;29738;51.234;5.484;2022-12-18T01:50:18;-5.40;99.90
44069;DHT22;29738;51.234;5.484;2022-12-18T01:52:52;-5.50;99.90
44069;DHT22;29738;51.234;5.484;2022-12-18T01:55:22;-5.60;99.90
44069;DHT22;29738;51.234;5.484;2022-12-18T01:57:48;-5.90;99.90
44069;DHT22;29738;51.234;5.484;2022-12-18T02:00:18;-5.90;99.90
44069;DHT22;29738;51.234;5.484;2022-12-18T02:02:46;-5.90;99.90
44069;DHT22;29738;51.234;5.484;2022-12-18T02:05:16;-5.70;99.90
44069;DHT22;29738;51.234;5.484;2022-12-18T02:13:41;-5.70;99.90
44069;DHT22;29738;51.234;5.484;2022-12-18T02:18:50;-5.90;99.90
44069;DHT22;29738;51.234;5.484;2022-12-18T02:26:55;-6.00;99.90
44069;DHT22;29738;51.234;5.484;2022-12-18T02:29:25;-5.80;99.90
44069;DHT22;29738;51.234;5.484;2022-12-18T02:31:56;-5.90;99.90
44069;DHT22;29738;51.234;5.484;2022-12-18T02:34:27;-5.80;99.90
44069;DHT22;29738;51.234;5.484;2022-12-18T02:36:54;-5.90;99.90
44069;DHT22;29738;51.234;5.484;2022-12-18T02:39:21;-6.00;99.90
44069;DHT22;29738;51.234;5.484;2022-12-18T02:41:49;-6.10;99.90
44069;DHT22;29738;51.234;5.484;2022-12-18T02:44:16;-6.20;99.90
44069;DHT22;29738;51.234;5.484;2022-12-18T02:46:45;-6.00;99.90
44069;DHT22;29738;51.234;5.484;2022-12-18T02:51:55;-6.00;99.90
44069;DHT22;29738;51.234;5.484;2022-12-18T02:54:38;-6.20;99.90
44069;DHT22;29738;51.234;5.484;2022-12-18T02:57:27;-6.20;99.90
44069;DHT22;29738;51.234;5.484;2022-12-18T03:00:00;-6.40;99.90
44069;DHT22;29738;51.234;5.484;2022-12-18T03:02:46;-6.20;99.90
44069;DHT22;29738;51.234;5.484;2022-12-18T03:05:32;-6.20;99.90
44069;DHT22;29738;51.234;5.484;2022-12-18T03:08:08;-6.20;99.90
44069;DHT22;29738;51.234;5.484;2022-12-18T03:10:40;-6.20;99.90
44069;DHT22;29738;51.234;5.484;2022-12-18T03:13:11;-6.20;99.90
44069;DHT22;29738;51.234;5.484;2022-12-18T03:15:44;-6.20;99.90
44069;DHT22;29738;51.234;5.484;2022-12-18T03:18:23;-6.30;99.90
44069;DHT22;29738;51.234;5.484;2022-12-18T03:20:51;-6.20;99.90
44069;DHT22;29738;51.234;5.484;2022-12-18T03:23:22;-6.30;99.90
44069;DHT22;29738;51.234;5.484;2022-12-18T03:25:52;-6.30;99.90
44069;DHT22;29738;51.234;5.484;2022-12-18T03:28:21;-6.30;99.90
44069;DHT22;29738;51.234;5.484;2022-12-18T03:30:51;-6.40;99.90
44069;DHT22;29738;51.234;5.484;2022-12-18T03:33:24;-6.30;99.90
44069;DHT22;29738;51.234;5.484;2022-12-18T03:35:51;-6.30;99.90
44069;DHT22;29738;51.234;5.484;2022-12-18T03:38:17;-6.20;99.90
44069;DHT22;29738;51.234;5.484;2022-12-18T03:43:41;-6.30;99.90
44069;DHT22;29738;51.234;5.484;2022-12-18T03:46:20;-6.30;99.90
44069;DHT22;29738;51.234;5.484;2022-12-18T03:48:55;-6.30;99.90
44069;DHT22;29738;51.234;5.484;2022-12-18T03:51:28;-6.10;99.90
44069;DHT22;29738;51.234;5.484;2022-12-18T03:54:00;-6.20;99.90
44069;DHT22;29738;51.234;5.484;2022-12-18T03:56:31;-6.40;99.90
44069;DHT22;29738;51.234;5.484;2022-12-18T03:58:59;-6.30;99.90
44069;DHT22;29738;51.234;5.484;2022-12-18T04:01:33;-6.50;99.90
44069;DHT22;29738;51.234;5.484;2022-12-18T04:04:01;-6.50;99.90
44069;DHT22;29738;51.234;5.484;2022-12-18T04:06:28;-6.40;99.90
44069;DHT22;29738;51.234;5.484;2022-12-18T04:08:55;-6.60;99.90
44069;DHT22;29738;51.234;5.484;2022-12-18T04:11:22;-6.60;99.90
44069;DHT22;29738;51.234;5.484;2022-12-18T04:13:47;-6.60;99.90
44069;DHT22;29738;51.234;5.484;2022-12-18T04:16:13;-6.60;99.90
44069;DHT22;29738;51.234;5.484;2022-12-18T04:18:39;-6.50;99.90
44069;DHT22;29738;51.234;5.484;2022-12-18T04:21:05;-6.60;99.90
44069;DHT22;29738;51.234;5.484;2022-12-18T04:23:30;-6.50;99.90
44069;DHT22;29738;51.234;5.484;2022-12-18T04:25:56;-6.40;99.90
44069;DHT22;29738;51.234;5.484;2022-12-18T04:28:22;-6.40;99.90
44069;DHT22;29738;51.234;5.484;2022-12-18T04:31:58;-6.00;99.90
44069;DHT22;29738;51.234;5.484;2022-12-18T04:34:24;-6.00;99.90
44069;DHT22;29738;51.234;5.484;2022-12-18T04:36:49;-6.00;99.90
44069;DHT22;29738;51.234;5.484;2022-12-18T04:39:15;-5.60;99.90
44069;DHT22;29738;51.234;5.484;2022-12-18T04:41:41;-5.80;99.90
44069;DHT22;29738;51.234;5.484;2022-12-18T04:44:07;-5.60;99.90
44069;DHT22;29738;51.234;5.484;2022-12-18T04:46:33;-5.60;99.90
44069;DHT22;29738;51.234;5.484;2022-12-18T04:48:58;-5.60;99.90
44069;DHT22;29738;51.234;5.484;2022-12-18T04:51:24;-5.40;99.90
44069;DHT22;29738;51.234;5.484;2022-12-18T04:53:50;-5.50;99.90
44069;DHT22;29738;51.234;5.484;2022-12-18T04:56:16;-5.50;99.90
44069;DHT22;29738;51.234;5.484;2022-12-18T04:58:43;-5.40;99.90
44069;DHT22;29738;51.234;5.484;2022-12-18T05:01:10;-5.50;99.90
44069;DHT22;29738;51.234;5.484;2022-12-18T05:03:37;-5.80;99.90
44069;DHT22;29738;51.234;5.484;2022-12-18T05:06:03;-5.90;99.90
44069;DHT22;29738;51.234;5.484;2022-12-18T05:08:29;-6.30;99.90
44069;DHT22;29738;51.234;5.484;2022-12-18T05:11:03;-6.40;99.90
44069;DHT22;29738;51.234;5.484;2022-12-18T05:13:29;-6.50;99.90
44069;DHT22;29738;51.234;5.484;2022-12-18T05:15:55;-6.40;99.90
44069;DHT22;29738;51.234;5.484;2022-12-18T05:18:22;-6.40;99.90
44069;DHT22;29738;51.234;5.484;2022-12-18T05:20:49;-6.40;99.90
44069;DHT22;29738;51.234;5.484;2022-12-18T05:23:15;-6.50;99.90
44069;DHT22;29738;51.234;5.484;2022-12-18T05:25:41;-6.40;99.90
44069;DHT22;29738;51.234;5.484;2022-12-18T05:28:07;-6.40;99.90
44069;DHT22;29738;51.234;5.484;2022-12-18T05:30:32;-6.30;99.90
44069;DHT22;29738;51.234;5.484;2022-12-18T05:32:58;-6.40;99.90
44069;DHT22;29738;51.234;5.484;2022-12-18T05:35:24;-6.60;99.90
44069;DHT22;29738;51.234;5.484;2022-12-18T05:37:49;-6.60;99.90
44069;DHT22;29738;51.234;5.484;2022-12-18T05:40:15;-6.50;99.90
44069;DHT22;29738;51.234;5.484;2022-12-18T05:42:41;-6.70;99.90
44069;DHT22;29738;51.234;5.484;2022-12-18T05:45:07;-6.50;99.90
44069;DHT22;29738;51.234;5.484;2022-12-18T05:47:33;-6.70;99.90
44069;DHT22;29738;51.234;5.484;2022-12-18T05:49:59;-6.50;99.90
44069;DHT22;29738;51.234;5.484;2022-12-18T05:52:25;-6.60;99.90
44069;DHT22;29738;51.234;5.484;2022-12-18T05:54:50;-6.50;99.90
44069;DHT22;29738;51.234;5.484;2022-12-18T05:57:19;-6.30;99.90
44069;DHT22;29738;51.234;5.484;2022-12-18T05:59:45;-6.30;99.90
44069;DHT22;29738;51.234;5.484;2022-12-18T06:02:11;-6.20;99.90
44069;DHT22;29738;51.234;5.484;2022-12-18T06:04:36;-6.40;99.90
44069;DHT22;29738;51.234;5.484;2022-12-18T06:07:03;-6.40;99.90
44069;DHT22;29738;51.234;5.484;2022-12-18T06:09:29;-6.50;99.90
44069;DHT22;29738;51.234;5.484;2022-12-18T06:11:55;-6.50;99.90
44069;DHT22;29738;51.234;5.484;2022-12-18T06:14:20;-6.20;99.90
44069;DHT22;29738;51.234;5.484;2022-12-18T06:16:46;-6.10;99.90
44069;DHT22;29738;51.234;5.484;2022-12-18T06:19:15;-6.00;99.90
44069;DHT22;29738;51.234;5.484;2022-12-18T06:21:41;-5.90;99.90
44069;DHT22;29738;51.234;5.484;2022-12-18T06:24:07;-5.80;99.90
44069;DHT22;29738;51.234;5.484;2022-12-18T06:26:33;-6.00;99.90
44069;DHT22;29738;51.234;5.484;2022-12-18T06:28:59;-6.20;99.90
44069;DHT22;29738;51.234;5.484;2022-12-18T06:31:25;-6.00;99.90
44069;DHT22;29738;51.234;5.484;2022-12-18T06:33:51;-6.10;99.90
44069;DHT22;29738;51.234;5.484;2022-12-18T06:36:17;-6.00;99.90
44069;DHT22;29738;51.234;5.484;2022-12-18T06:38:44;-6.10;99.90
44069;DHT22;29738;51.234;5.484;2022-12-18T06:41:18;-6.20;99.90
44069;DHT22;29738;51.234;5.484;2022-12-18T06:43:44;-6.30;99.90
44069;DHT22;29738;51.234;5.484;2022-12-18T06:46:10;-6.40;99.90
44069;DHT22;29738;51.234;5.484;2022-12-18T06:48:36;-6.40;99.90
44069;DHT22;29738;51.234;5.484;2022-12-18T06:51:02;-6.40;99.90
44069;DHT22;29738;51.234;5.484;2022-12-18T06:53:28;-6.20;99.90
44069;DHT22;29738;51.234;5.484;2022-12-18T06:56:06;-6.10;99.90
44069;DHT22;29738;51.234;5.484;2022-12-18T06:58:32;-6.10;99.90
44069;DHT22;29738;51.234;5.484;2022-12-18T07:01:03;-6.10;99.90
44069;DHT22;29738;51.234;5.484;2022-12-18T07:03:29;-6.10;99.90
44069;DHT22;29738;51.234;5.484;2022-12-18T07:05:55;-6.10;99.90
44069;DHT22;29738;51.234;5.484;2022-12-18T07:08:21;-6.10;99.90
44069;DHT22;29738;51.234;5.484;2022-12-18T07:10:47;-5.90;99.90
44069;DHT22;29738;51.234;5.484;2022-12-18T07:13:15;-5.50;99.90
44069;DHT22;29738;51.234;5.484;2022-12-18T07:15:41;-5.60;99.90
44069;DHT22;29738;51.234;5.484;2022-12-18T07:18:07;-5.40;99.90
44069;DHT22;29738;51.234;5.484;2022-12-18T07:20:33;-5.40;99.90
44069;DHT22;29738;51.234;5.484;2022-12-18T07:22:58;-5.60;99.90
44069;DHT22;29738;51.234;5.484;2022-12-18T07:25:26;-5.60;99.90
44069;DHT22;29738;51.234;5.484;2022-12-18T07:27:52;-5.50;99.90
44069;DHT22;29738;51.234;5.484;2022-12-18T07:30:18;-5.60;99.90
44069;DHT22;29738;51.234;5.484;2022-12-18T07:32:44;-5.60;99.90
44069;DHT22;29738;51.234;5.484;2022-12-18T07:35:09;-5.40;99.90
44069;DHT22;29738;51.234;5.484;2022-12-18T07:37:35;-5.40;99.90
44069;DHT22;29738;51.234;5.484;2022-12-18T07:40:01;-5.50;99.90
44069;DHT22;29738;51.234;5.484;2022-12-18T07:42:27;-5.40;99.90
44069;DHT22;29738;51.234;5.484;2022-12-18T07:44:56;-5.40;99.90
44069;DHT22;29738;51.234;5.484;2022-12-18T07:47:21;-5.20;99.90
44069;DHT22;29738;51.234;5.484;2022-12-18T07:49:48;-5.00;99.90
44069;DHT22;29738;51.234;5.484;2022-12-18T07:52:13;-5.30;99.90
44069;DHT22;29738;51.234;5.484;2022-12-18T07:54:39;-5.20;99.90
44069;DHT22;29738;51.234;5.484;2022-12-18T07:57:06;-5.00;99.90
44069;DHT22;29738;51.234;5.484;2022-12-18T07:59:32;-5.10;99.90
44069;DHT22;29738;51.234;5.484;2022-12-18T08:01:58;-5.00;99.90
44069;DHT22;29738;51.234;5.484;2022-12-18T08:04:24;-5.00;99.90
44069;DHT22;29738;51.234;5.484;2022-12-18T08:06:53;-4.90;99.90
44069;DHT22;29738;51.234;5.484;2022-12-18T08:09:19;-4.90;99.90
44069;DHT22;29738;51.234;5.484;2022-12-18T08:11:45;-5.00;99.90
44069;DHT22;29738;51.234;5.484;2022-12-18T08:14:10;-4.80;99.90
44069;DHT22;29738;51.234;5.484;2022-12-18T08:16:36;-4.60;99.90
44069;DHT22;29738;51.234;5.484;2022-12-18T08:19:02;-4.70;99.90
44069;DHT22;29738;51.234;5.484;2022-12-18T08:21:30;-4.80;99.90
44069;DHT22;29738;51.234;5.484;2022-12-18T08:23:58;-4.80;99.90
44069;DHT22;29738;51.234;5.484;2022-12-18T08:26:26;-4.80;99.90
44069;DHT22;29738;51.234;5.484;2022-12-18T08:28:54;-4.70;99.90
44069;DHT22;29738;51.234;5.484;2022-12-18T08:31:21;-4.60;99.90
44069;DHT22;29738;51.234;5.484;2022-12-18T08:33:49;-4.30;99.90
44069;DHT22;29738;51.234;5.484;2022-12-18T08:36:15;-4.40;99.90
44069;DHT22;29738;51.234;5.484;2022-12-18T08:38:41;-4.60;99.90
44069;DHT22;29738;51.234;5.484;2022-12-18T08:41:09;-4.50;99.90
44069;DHT22;29738;51.234;5.484;2022-12-18T08:43:35;-4.30;99.90
44069;DHT22;29738;51.234;5.484;2022-12-18T08:46:21;-4.10;99.90
44069;DHT22;29738;51.234;5.484;2022-12-18T08:48:47;-4.10;99.90
44069;DHT22;29738;51.234;5.484;2022-12-18T08:51:16;-4.20;99.90
44069;DHT22;29738;51.234;5.484;2022-12-18T08:53:42;-4.40;99.90
44069;DHT22;29738;51.234;5.484;2022-12-18T08:56:10;-4.30;99.90
44069;DHT22;29738;51.234;5.484;2022-12-18T08:58:36;-4.40;99.90
44069;DHT22;29738;51.234;5.484;2022-12-18T09:01:03;-4.50;99.90
44069;DHT22;29738;51.234;5.484;2022-12-18T09:03:29;-4.30;99.90
44069;DHT22;29738;51.234;5.484;2022-12-18T09:05:55;-4.00;99.90
44069;DHT22;29738;51.234;5.484;2022-12-18T09:08:21;-4.10;99.90
44069;DHT22;29738;51.234;5.484;2022-12-18T09:10:48;-4.00;99.90
44069;DHT22;29738;51.234;5.484;2022-12-18T09:13:15;-3.80;99.90
44069;DHT22;29738;51.234;5.484;2022-12-18T09:15:43;-3.60;99.90
44069;DHT22;29738;51.234;5.484;2022-12-18T09:18:09;-3.60;99.90
44069;DHT22;29738;51.234;5.484;2022-12-18T09:20:36;-3.70;99.90
44069;DHT22;29738;51.234;5.484;2022-12-18T09:23:02;-3.40;99.90
44069;DHT22;29738;51.234;5.484;2022-12-18T09:25:29;-3.50;99.90
44069;DHT22;29738;51.234;5.484;2022-12-18T09:28:18;-3.50;99.90
44069;DHT22;29738;51.234;5.484;2022-12-18T09:30:49;-3.30;99.90
44069;DHT22;29738;51.234;5.484;2022-12-18T09:33:15;-3.70;99.90
44069;DHT22;29738;51.234;5.484;2022-12-18T09:35:43;-3.60;99.90
44069;DHT22;29738;51.234;5.484;2022-12-18T09:38:15;-3.60;99.90
44069;DHT22;29738;51.234;5.484;2022-12-18T09:46:01;-3.60;99.90
44069;DHT22;29738;51.234;5.484;2022-12-18T09:48:34;-3.30;99.90
44069;DHT22;29738;51.234;5.484;2022-12-18T09:51:11;-3.10;99.90
44069;DHT22;29738;51.234;5.484;2022-12-18T09:53:41;-3.00;99.90
44069;DHT22;29738;51.234;5.484;2022-12-18T09:56:15;-2.90;99.90
44069;DHT22;29738;51.234;5.484;2022-12-18T10:01:22;-3.20;99.90
44069;DHT22;29738;51.234;5.484;2022-12-18T10:03:48;-3.30;99.90
44069;DHT22;29738;51.234;5.484;2022-12-18T10:08:51;-3.00;99.90
44069;DHT22;29738;51.234;5.484;2022-12-18T10:11:42;-2.70;99.90
44069;DHT22;29738;51.234;5.484;2022-12-18T10:14:20;-2.70;99.90
44069;DHT22;29738;51.234;5.484;2022-12-18T10:19:40;-2.60;99.90
44069;DHT22;29738;51.234;5.484;2022-12-18T10:27:41;-2.80;99.90
44069;DHT22;29738;51.234;5.484;2022-12-18T10:30:15;-2.60;99.90
44069;DHT22;29738;51.234;5.484;2022-12-18T10:32:41;-2.50;99.90
44069;DHT22;29738;51.234;5.484;2022-12-18T10:35:21;-2.10;99.90
44069;DHT22;29738;51.234;5.484;2022-12-18T10:38:28;-2.20;99.90
44069;DHT22;29738;51.234;5.484;2022-12-18T10:43:31;-2.20;99.90
44069;DHT22;29738;51.234;5.484;2022-12-18T10:51:29;-2.20;99.90
44069;DHT22;29738;51.234;5.484;2022-12-18T10:56:31;-1.90;99.90
44069;DHT22;29738;51.234;5.484;2022-12-18T10:59:08;-2.00;99.90
44069;DHT22;29738;51.234;5.484;2022-12-18T11:01:55;-2.00;99.90
44069;DHT22;29738;51.234;5.484;2022-12-18T11:04:31;-1.90;99.90
44069;DHT22;29738;51.234;5.484;2022-12-18T11:07:05;-2.10;99.90
44069;DHT22;29738;51.234;5.484;2022-12-18T11:09:36;-2.00;99.90
44069;DHT22;29738;51.234;5.484;2022-12-18T11:12:04;-1.90;99.90
44069;DHT22;29738;51.234;5.484;2022-12-18T11:14:51;-2.00;99.90
44069;DHT22;29738;51.234;5.484;2022-12-18T11:17:35;-1.90;99.90
44069;DHT22;29738;51.234;5.484;2022-12-18T11:20:18;-1.70;99.90
44069;DHT22;29738;51.234;5.484;2022-12-18T11:23:04;-1.60;99.90
44069;DHT22;29738;51.234;5.484;2022-12-18T11:25:32;-1.20;99.90
44069;DHT22;29738;51.234;5.484;2022-12-18T11:28:02;-1.30;99.90
44069;DHT22;29738;51.234;5.484;2022-12-18T11:30:33;-1.00;99.90
44069;DHT22;29738;51.234;5.484;2022-12-18T11:35:53;-0.80;99.90
44069;DHT22;29738;51.234;5.484;2022-12-18T11:43:55;-0.80;99.90
44069;DHT22;29738;51.234;5.484;2022-12-18T11:46:32;-0.90;99.90
44069;DHT22;29738;51.234;5.484;2022-12-18T11:49:07;-0.70;99.90
44069;DHT22;29738;51.234;5.484;2022-12-18T11:54:43;-0.50;99.90
44069;DHT22;29738;51.234;5.484;2022-12-18T11:57:34;-0.50;99.90
44069;DHT22;29738;51.234;5.484;2022-12-18T12:00:13;-0.70;99.90
44069;DHT22;29738;51.234;5.484;2022-12-18T12:19:15;-0.60;99.90
44069;DHT22;29738;51.234;5.484;2022-12-18T12:30:27;-0.20;99.90
44069;DHT22;29738;51.234;5.484;2022-12-18T12:36:12;-0.30;99.90
44069;DHT22;29738;51.234;5.484;2022-12-18T12:38:46;-0.50;99.90
44069;DHT22;29738;51.234;5.484;2022-12-18T12:41:19;-0.70;99.90
44069;DHT22;29738;51.234;5.484;2022-12-18T12:44:08;-0.60;99.90
44069;DHT22;29738;51.234;5.484;2022-12-18T12:46:38;-0.60;99.90
44069;DHT22;29738;51.234;5.484;2022-12-18T12:49:19;-0.30;99.90
44069;DHT22;29738;51.234;5.484;2022-12-18T12:51:57;-0.20;99.90
44069;DHT22;29738;51.234;5.484;2022-12-18T12:54:26;-0.30;99.90
44069;DHT22;29738;51.234;5.484;2022-12-18T12:57:23;-0.10;99.90
44069;DHT22;29738;51.234;5.484;2022-12-18T13:00:10;-0.20;99.90
44069;DHT22;29738;51.234;5.484;2022-12-18T13:03:15;-0.40;99.90
44069;DHT22;29738;51.234;5.484;2022-12-18T13:05:58;-0.40;99.90
44069;DHT22;29738;51.234;5.484;2022-12-18T13:08:30;-0.30;99.90
44069;DHT22;29738;51.234;5.484;2022-12-18T13:11:00;-0.40;99.90
44069;DHT22;29738;51.234;5.484;2022-12-18T13:13:53;-0.50;99.90
44069;DHT22;29738;51.234;5.484;2022-12-18T13:16:21;-0.40;99.90
44069;DHT22;29738;51.234;5.484;2022-12-18T13:18:52;-0.20;99.90
44069;DHT22;29738;51.234;5.484;2022-12-18T13:21:36;-0.20;99.90
44069;DHT22;29738;51.234;5.484;2022-12-18T13:24:22;0.10;99.90
44069;DHT22;29738;51.234;5.484;2022-12-18T13:26:49;0.10;99.90
44069;DHT22;29738;51.234;5.484;2022-12-18T13:29:45;0.10;99.90
44069;DHT22;29738;51.234;5.484;2022-12-18T13:32:22;0.30;99.90
44069;DHT22;29738;51.234;5.484;2022-12-18T13:34:49;0.20;99.90
44069;DHT22;29738;51.234;5.484;2022-12-18T13:37:43;0.30;99.90
44069;DHT22;29738;51.234;5.484;2022-12-18T13:48:26;0.50;99.90
44069;DHT22;29738;51.234;5.484;2022-12-18T13:50:58;0.70;99.90
44069;DHT22;29738;51.234;5.484;2022-12-18T13:53:29;1.00;99.90
44069;DHT22;29738;51.234;5.484;2022-12-18T13:55:56;0.80;99.90
44069;DHT22;29738;51.234;5.484;2022-12-18T13:58:22;0.80;99.90
44069;DHT22;29738;51.234;5.484;2022-12-18T14:00:47;0.90;99.90
44069;DHT22;29738;51.234;5.484;2022-12-18T14:03:22;1.00;99.90
44069;DHT22;29738;51.234;5.484;2022-12-18T14:06:08;0.80;99.90
44069;DHT22;29738;51.234;5.484;2022-12-18T14:08:41;0.50;99.90
44069;DHT22;29738;51.234;5.484;2022-12-18T14:11:07;0.70;99.90
44069;DHT22;29738;51.234;5.484;2022-12-18T14:13:43;1.00;99.90
44069;DHT22;29738;51.234;5.484;2022-12-18T14:16:14;1.00;99.90
44069;DHT22;29738;51.234;5.484;2022-12-18T14:18:55;0.60;99.90
44069;DHT22;29738;51.234;5.484;2022-12-18T14:21:29;0.50;99.90
44069;DHT22;29738;51.234;5.484;2022-12-18T14:24:24;0.90;99.90
44069;DHT22;29738;51.234;5.484;2022-12-18T14:26:51;0.90;99.90
44069;DHT22;29738;51.234;5.484;2022-12-18T14:29:28;1.10;99.90
44069;DHT22;29738;51.234;5.484;2022-12-18T14:32:13;1.10;99.90
44069;DHT22;29738;51.234;5.484;2022-12-18T14:37:14;0.90;99.90
44069;DHT22;29738;51.234;5.484;2022-12-18T14:39:40;1.00;99.90
44069;DHT22;29738;51.234;5.484;2022-12-18T14:42:09;0.80;99.90
44069;DHT22;29738;51.234;5.484;2022-12-18T14:44:35;0.80;99.90
44069;DHT22;29738;51.234;5.484;2022-12-18T14:47:00;0.90;99.90
44069;DHT22;29738;51.234;5.484;2022-12-18T14:49:32;0.90;99.90
44069;DHT22;29738;51.234;5.484;2022-12-18T14:52:00;1.00;99.90
44069;DHT22;29738;51.234;5.484;2022-12-18T14:54:28;0.90;99.90
44069;DHT22;29738;51.234;5.484;2022-12-18T14:57:23;0.80;99.90
44069;DHT22;29738;51.234;5.484;2022-12-18T14:59:50;1.00;99.90
44069;DHT22;29738;51.234;5.484;2022-12-18T15:02:25;1.10;99.90
44069;DHT22;29738;51.234;5.484;2022-12-18T15:07:45;1.00;99.90
44069;DHT22;29738;51.234;5.484;2022-12-18T15:10:23;1.00;99.90
44069;DHT22;29738;51.234;5.484;2022-12-18T15:13:05;1.00;99.90
44069;DHT22;29738;51.234;5.484;2022-12-18T15:20:54;0.90;99.90
44069;DHT22;29738;51.234;5.484;2022-12-18T15:26:09;0.90;99.90
44069;DHT22;29738;51.234;5.484;2022-12-18T15:28:39;1.00;99.90
44069;DHT22;29738;51.234;5.484;2022-12-18T15:33:41;1.10;99.90
44069;DHT22;29738;51.234;5.484;2022-12-18T15:36:13;0.80;99.90
44069;DHT22;29738;51.234;5.484;2022-12-18T15:38:39;0.80;99.90
44069;DHT22;29738;51.234;5.484;2022-12-18T15:41:05;0.70;99.90
44069;DHT22;29738;51.234;5.484;2022-12-18T15:43:32;0.90;99.90
44069;DHT22;29738;51.234;5.484;2022-12-18T15:46:15;0.90;99.90
44069;DHT22;29738;51.234;5.484;2022-12-18T15:48:48;1.00;99.90
44069;DHT22;29738;51.234;5.484;2022-12-18T15:53:49;1.00;99.90
44069;DHT22;29738;51.234;5.484;2022-12-18T15:56:16;1.00;99.90
44069;DHT22;29738;51.234;5.484;2022-12-18T15:59:00;1.00;99.90
44069;DHT22;29738;51.234;5.484;2022-12-18T16:01:28;1.10;99.90
44069;DHT22;29738;51.234;5.484;2022-12-18T16:03:54;0.90;99.90
44069;DHT22;29738;51.234;5.484;2022-12-18T16:06:21;0.90;99.90
44069;DHT22;29738;51.234;5.484;2022-12-18T16:08:47;1.30;99.90
44069;DHT22;29738;51.234;5.484;2022-12-18T16:11:27;1.30;99.90
44069;DHT22;29738;51.234;5.484;2022-12-18T16:16:49;0.90;99.90
44069;DHT22;29738;51.234;5.484;2022-12-18T16:19:15;0.80;99.90
44069;DHT22;29738;51.234;5.484;2022-12-18T16:21:41;0.70;99.90
44069;DHT22;29738;51.234;5.484;2022-12-18T16:24:15;1.00;99.90
44069;DHT22;29738;51.234;5.484;2022-12-18T16:26:41;0.80;99.90
44069;DHT22;29738;51.234;5.484;2022-12-18T16:29:08;0.90;99.90
44069;DHT22;29738;51.234;5.484;2022-12-18T16:31:34;1.10;99.90
44069;DHT22;29738;51.234;5.484;2022-12-18T16:34:20;0.90;99.90
44069;DHT22;29738;51.234;5.484;2022-12-18T16:36:49;1.00;99.90
44069;DHT22;29738;51.234;5.484;2022-12-18T16:39:16;1.20;99.90
44069;DHT22;29738;51.234;5.484;2022-12-18T16:41:41;1.10;99.90
44069;DHT22;29738;51.234;5.484;2022-12-18T16:44:07;0.90;99.90
44069;DHT22;29738;51.234;5.484;2022-12-18T16:46:33;1.00;99.90
44069;DHT22;29738;51.234;5.484;2022-12-18T16:48:59;1.10;99.90
44069;DHT22;29738;51.234;5.484;2022-12-18T16:51:29;1.20;99.90
44069;DHT22;29738;51.234;5.484;2022-12-18T16:53:55;1.50;99.90
44069;DHT22;29738;51.234;5.484;2022-12-18T16:56:23;1.50;99.90
44069;DHT22;29738;51.234;5.484;2022-12-18T16:58:52;1.40;99.90
44069;DHT22;29738;51.234;5.484;2022-12-18T17:01:18;1.40;99.90
44069;DHT22;29738;51.234;5.484;2022-12-18T17:03:51;1.30;99.90
44069;DHT22;29738;51.234;5.484;2022-12-18T17:06:17;1.30;99.90
44069;DHT22;29738;51.234;5.484;2022-12-18T17:08:42;1.20;99.90
44069;DHT22;29738;51.234;5.484;2022-12-18T17:11:08;1.20;99.90
44069;DHT22;29738;51.234;5.484;2022-12-18T17:13:34;1.30;99.90
44069;DHT22;29738;51.234;5.484;2022-12-18T17:16:04;1.40;99.90
44069;DHT22;29738;51.234;5.484;2022-12-18T17:18:32;1.40;99.90
44069;DHT22;29738;51.234;5.484;2022-12-18T17:21:04;1.40;99.90
44069;DHT22;29738;51.234;5.484;2022-12-18T17:23:30;1.40;99.90
44069;DHT22;29738;51.234;5.484;2022-12-18T17:25:57;1.40;99.90
44069;DHT22;29738;51.234;5.484;2022-12-18T17:28:25;1.30;99.90
44069;DHT22;29738;51.234;5.484;2022-12-18T17:30:52;1.20;99.90
44069;DHT22;29738;51.234;5.484;2022-12-18T17:33:18;1.30;99.90
44069;DHT22;29738;51.234;5.484;2022-12-18T17:35:44;1.40;99.90
44069;DHT22;29738;51.234;5.484;2022-12-18T17:38:10;1.50;99.90
44069;DHT22;29738;51.234;5.484;2022-12-18T17:40:36;1.60;99.90
44069;DHT22;29738;51.234;5.484;2022-12-18T17:43:02;1.50;99.90
44069;DHT22;29738;51.234;5.484;2022-12-18T17:45:28;1.40;99.90
44069;DHT22;29738;51.234;5.484;2022-12-18T17:47:54;1.60;99.90
44069;DHT22;29738;51.234;5.484;2022-12-18T17:50:19;1.60;99.90
44069;DHT22;29738;51.234;5.484;2022-12-18T17:52:45;1.60;99.90
44069;DHT22;29738;51.234;5.484;2022-12-18T17:55:11;1.70;99.90